createdAt,value
2022-12-18T00:09:12.449Z,26.27
2022-12-18T00:19:15.728Z,37.47
2022-12-18T00:29:17.637Z,101.20
2022-12-18T00:39:19.458Z,48.60
2022-12-18T00:49:21.521Z,54.28
2022-12-18T00:59:23.427Z,64.50
2022-12-18T01:09:26.156Z,32.83
2022-12-18T01:19:28.793Z,64.07
2022-12-18T01:29:30.863Z,45.50
2022-12-18T01:39:33.740Z,35.67
2022-12-18T01:49:35.636Z,31.67
2022-12-18T01:59:39.933Z,28.60
2022-12-18T02:10:08.572Z,61.85
2022-12-18T02:21:00.180Z,39.47
2022-12-18T02:31:06.015Z,20.13
2022-12-18T02:41:08.553Z,42.47
2022-12-18T02:51:30.091Z,25.10
2022-12-18T03:01:36.445Z,47.75
2022-12-18T03:11:43.526Z,21.33
2022-12-18T03:21:52.786Z,26.90
2022-12-18T03:31:59.131Z,21.02
2022-12-18T03:42:08.088Z,36.55
2022-12-18T03:52:41.873Z,38.05
2022-12-18T04:02:48.607Z,21.98
2022-12-18T04:12:59.224Z,29.38
2022-12-18T04:23:01.516Z,17.77
2022-12-18T04:33:03.711Z,12.45
2022-12-18T04:43:07.431Z,30.92
2022-12-18T04:53:09.448Z,28.02
2022-12-18T05:03:11.899Z,26.92
2022-12-18T05:13:13.726Z,14.90
2022-12-18T05:23:15.597Z,14.00
2022-12-18T05:33:18.369Z,51.47
2022-12-18T05:43:21.783Z,32.45
2022-12-18T05:53:23.789Z,25.88
2022-12-18T06:03:30.679Z,34.88
2022-12-18T06:13:38.019Z,34.30
2022-12-18T06:23:40.817Z,24.17
2022-12-18T06:33:43.127Z,33.60
2022-12-18T06:43:45.136Z,26.90
2022-12-18T06:53:47.237Z,35.08
2022-12-18T07:03:54.355Z,30.95
2022-12-18T07:13:56.302Z,40.10
2022-12-18T07:23:58.305Z,45.85
2022-12-18T07:34:00.182Z,47.08
2022-12-18T07:44:04.992Z,23.15
2022-12-18T07:54:06.973Z,44.00
2022-12-18T08:04:09.083Z,23.50
2022-12-18T08:14:11.057Z,25.58
2022-12-18T08:24:12.900Z,25.42
2022-12-18T08:34:14.866Z,32.55
2022-12-18T08:44:16.684Z,36.03
2022-12-18T08:54:18.606Z,29.17
2022-12-18T09:04:20.531Z,42.63
2022-12-18T09:14:22.550Z,46.75
2022-12-18T09:24:24.467Z,33.78
2022-12-18T09:34:26.411Z,41.83
2022-12-18T09:44:43.089Z,57.72
2022-12-18T09:54:52.928Z,31.95
2022-12-18T10:05:23.122Z,24.83
2022-12-18T10:15:50.172Z,41.85
2022-12-18T10:25:55.816Z,34.25
2022-12-18T10:35:57.700Z,34.70
2022-12-18T10:46:13.447Z,46.28
2022-12-18T10:56:21.296Z,40.17
2022-12-18T11:06:25.243Z,36.40
2022-12-18T11:16:28.617Z,56.42
2022-12-18T11:26:36.206Z,47.72
2022-12-18T11:36:42.192Z,32.97
2022-12-18T11:46:53.978Z,32.33
2022-12-18T11:57:25.661Z,45.20
2022-12-18T12:07:54.609Z,48.30
2022-12-18T12:18:15.194Z,11.63
2022-12-18T12:28:29.314Z,33.15
2022-12-18T12:38:52.103Z,33.05
2022-12-18T12:48:57.645Z,29.88
2022-12-18T12:59:35.521Z,24.30
2022-12-18T13:10:17.740Z,21.95
2022-12-18T13:20:21.156Z,37.22
2022-12-18T13:30:53.430Z,30.25
2022-12-18T13:41:05.293Z,26.48
2022-12-18T13:51:10.779Z,24.43
2022-12-18T14:01:25.376Z,41.30
2022-12-18T14:11:27.776Z,35.65
2022-12-18T14:21:31.854Z,35.83
2022-12-18T14:31:33.727Z,41.83
2022-12-18T14:41:35.545Z,69.90
2022-12-18T14:51:37.666Z,54.50
2022-12-18T15:01:47.949Z,91.13
2022-12-18T15:11:50.085Z,84.65
2022-12-18T15:21:51.951Z,64.00
2022-12-18T15:32:05.797Z,116.70
2022-12-18T15:42:10.819Z,121.68
2022-12-18T15:52:14.636Z,95.88
2022-12-18T16:02:18.752Z,72.47
2022-12-18T16:12:23.384Z,69.00
2022-12-18T16:22:28.398Z,107.00
2022-12-18T16:32:30.313Z,76.20
2022-12-18T16:42:33.180Z,142.90
2022-12-18T16:52:35.738Z,91.80
2022-12-18T17:02:37.732Z,99.38
2022-12-18T17:12:39.765Z,123.82
2022-12-18T17:22:41.628Z,69.47
2022-12-18T17:32:43.560Z,86.90
2022-12-18T17:42:45.407Z,82.28
2022-12-18T17:52:47.225Z,95.20
2022-12-18T18:02:49.372Z,76.47
2022-12-18T18:12:51.418Z,77.43
2022-12-18T18:22:53.315Z,65.85
2022-12-18T18:32:55.165Z,34.95
2022-12-18T18:42:57.235Z,43.88
2022-12-18T18:52:59.013Z,115.15
2022-12-18T19:03:01.195Z,77.97
2022-12-18T19:13:03.679Z,157.90
2022-12-18T19:23:05.686Z,44.92
2022-12-18T19:33:26.785Z,57.22
2022-12-18T19:43:29.491Z,75.35
2022-12-18T19:53:31.353Z,96.65
2022-12-18T20:03:33.590Z,132.35
2022-12-18T20:13:35.830Z,58.72
2022-12-18T20:23:37.875Z,57.58
2022-12-18T20:33:40.383Z,92.22
2022-12-18T20:43:43.223Z,60.97
2022-12-18T20:53:45.933Z,96.13
2022-12-18T21:03:48.841Z,101.57
2022-12-18T21:13:50.710Z,84.97
2022-12-18T21:23:52.970Z,56.63
2022-12-18T21:34:01.869Z,87.22
2022-12-18T21:44:04.680Z,74.93
2022-12-18T21:54:07.138Z,91.75
2022-12-18T22:04:09.278Z,132.65
2022-12-18T22:14:11.527Z,47.55
2022-12-18T22:24:20.853Z,45.83
2022-12-18T22:34:23.341Z,75.18
2022-12-18T22:44:28.493Z,63.70
2022-12-18T22:54:30.571Z,64.18
2022-12-18T23:04:35.921Z,125.50
2022-12-18T23:14:38.239Z,56.28
2022-12-18T23:24:40.042Z,60.78
2022-12-18T23:34:42.560Z,74.63
2022-12-18T23:44:44.440Z,123.32
2022-12-18T23:54:46.478Z,154.38
